createdAt,value
2023-02-28T00:00:37.814Z,0
2023-02-28T00:05:39.487Z,0
2023-02-28T00:10:40.921Z,0
2023-02-28T00:15:42.408Z,0
2023-02-28T00:20:43.885Z,0
2023-02-28T00:25:45.449Z,0
2023-02-28T00:30:47.185Z,0
2023-02-28T00:35:48.680Z,0.88715
2023-02-28T00:40:50.320Z,0
2023-02-28T00:45:51.907Z,0
2023-02-28T00:50:53.482Z,0
2023-02-28T00:55:55.049Z,0
2023-02-28T01:00:56.509Z,0
2023-02-28T01:05:58.048Z,0
2023-02-28T01:10:59.568Z,0
2023-02-28T01:16:01.205Z,0
2023-02-28T01:21:02.718Z,0
2023-02-28T01:26:04.177Z,0
2023-02-28T01:31:06.043Z,0
2023-02-28T01:36:07.682Z,0
2023-02-28T01:41:09.411Z,0
2023-02-28T01:46:10.930Z,0
2023-02-28T01:51:12.539Z,0
2023-02-28T01:56:14.379Z,0
2023-02-28T02:01:15.966Z,0
2023-02-28T02:06:17.574Z,0
2023-02-28T02:11:19.216Z,0
2023-02-28T02:16:20.868Z,0
2023-02-28T02:21:22.474Z,0
2023-02-28T02:26:23.987Z,0
2023-02-28T02:31:25.574Z,0
2023-02-28T02:36:27.260Z,0
2023-02-28T02:41:29.013Z,0
2023-02-28T02:46:30.772Z,0
2023-02-28T02:51:32.408Z,0
2023-02-28T02:56:33.976Z,0
2023-02-28T03:01:35.525Z,0
2023-02-28T03:06:37.029Z,0
2023-02-28T03:11:38.532Z,0
2023-02-28T03:16:40.042Z,0
2023-02-28T03:21:41.654Z,0.88715
2023-02-28T03:26:43.250Z,0.88715
2023-02-28T03:31:44.922Z,0.88715
2023-02-28T03:36:46.514Z,0.88715
2023-02-28T03:41:48.230Z,0.4148
2023-02-28T03:46:49.748Z,1.2444
2023-02-28T03:51:51.306Z,2.4888
2023-02-28T03:56:52.906Z,5.33005
2023-02-28T04:01:54.528Z,13.8319
2023-02-28T04:06:56.100Z,24.65745
2023-02-28T04:11:57.669Z,38.1756
2023-02-28T04:16:59.131Z,57.8719
2023-02-28T04:22:00.675Z,74.08265
2023-02-28T04:27:02.223Z,97.1352
2023-02-28T04:32:03.970Z,118.8966
2023-02-28T04:37:13.338Z,146.8
2023-02-28T04:42:15.312Z,169.85255
2023-02-28T04:47:16.773Z,194.2514
2023-02-28T04:52:18.418Z,211.67915
2023-02-28T04:57:19.998Z,233.2751
2023-02-28T05:02:21.689Z,260.01665
2023-02-28T05:07:23.296Z,304.70315
2023-02-28T05:12:24.993Z,328.32805
2023-02-28T05:17:26.438Z,353.29925
2023-02-28T05:22:27.912Z,365.32465
2023-02-28T05:27:29.513Z,369.89975
2023-02-28T05:32:31.144Z,376.3745
2023-02-28T05:37:32.799Z,388.012
2023-02-28T05:42:34.493Z,388.2896
2023-02-28T05:47:36.053Z,391.44425
2023-02-28T05:52:37.585Z,392.7734
2023-02-28T05:57:39.154Z,380.28965
2023-02-28T06:02:40.832Z,372.63775
2023-02-28T06:07:42.535Z,360.57805
2023-02-28T06:12:44.115Z,349.0717
2023-02-28T06:17:45.556Z,355.24795
2023-02-28T06:22:47.049Z,373.7953
2023-02-28T06:27:48.529Z,383.63175
2023-02-28T06:32:50.006Z,400.75705
2023-02-28T06:37:51.477Z,416.1046
2023-02-28T06:42:52.951Z,424.75595
2023-02-28T06:47:54.485Z,447.80685
2023-02-28T06:52:56.215Z,469.90975
2023-02-28T06:57:57.792Z,484.66465
2023-02-28T07:02:59.364Z,503.15285
2023-02-28T07:08:00.838Z,523.59655
2023-02-28T07:13:02.288Z,543.44755
2023-02-28T07:18:03.797Z,550.55825
2023-02-28T07:23:05.225Z,560.92815
2023-02-28T07:28:06.959Z,574.73495
2023-02-28T07:33:08.721Z,595.53405
2023-02-28T07:38:10.318Z,608.3335
2023-02-28T07:43:12.090Z,622.85135
2023-02-28T07:48:13.528Z,613.074
2023-02-28T07:53:15.012Z,637.01365
2023-02-28T07:58:16.764Z,668.06425
2023-02-28T08:03:18.271Z,684.3006
2023-02-28T08:08:19.801Z,704.7442
2023-02-28T08:13:21.269Z,717.54355
2023-02-28T08:18:22.778Z,722.75805
2023-02-28T08:23:24.213Z,752.2088
2023-02-28T08:28:27.367Z,772.41535
2023-02-28T08:33:29.248Z,777.9262
2023-02-28T08:38:30.781Z,806.7251
2023-02-28T08:43:32.338Z,821.06525
2023-02-28T08:48:33.823Z,830.7242
2023-02-28T08:53:35.323Z,852.35295
2023-02-28T08:58:36.942Z,869.35975
2023-02-28T09:03:38.639Z,890.87005
2023-02-28T09:08:40.201Z,910.3064
2023-02-28T09:13:41.905Z,925.0022
2023-02-28T09:18:43.430Z,937.2684
2023-02-28T09:23:44.916Z,957.9492
2023-02-28T09:28:46.473Z,968.3192
2023-02-28T09:33:47.981Z,977.80025
2023-02-28T09:38:49.808Z,997.76995
2023-02-28T09:43:51.464Z,1019.99135
2023-02-28T09:48:53.086Z,1037.47225
2023-02-28T09:54:01.436Z,1055.72345
2023-02-28T09:59:03.559Z,1065.8565
2023-02-28T10:04:05.070Z,1087.90025
2023-02-28T10:09:06.645Z,1110.2995
2023-02-28T10:14:08.761Z,1117.41055
2023-02-28T10:19:10.210Z,1158.8906
2023-02-28T10:29:14.215Z,1205.76325
2023-02-28T10:34:15.670Z,1256.30945
2023-02-28T10:39:17.159Z,1297.31555
2023-02-28T10:44:18.650Z,1303.7749
2023-02-28T10:49:20.245Z,1302.47145
2023-02-28T10:54:21.705Z,1309.7013
2023-02-28T10:59:23.328Z,1321.6122
2023-02-28T11:04:24.825Z,1324.8121
2023-02-28T11:09:26.296Z,1325.7602
2023-02-28T11:14:27.813Z,1327.1232
2023-02-28T11:19:29.256Z,1360.5447
2023-02-28T11:24:30.764Z,1382.0555
2023-02-28T11:29:32.251Z,1402.91425
2023-02-28T11:34:33.782Z,1413.9954
2023-02-28T11:39:35.393Z,1424.7211
2023-02-28T11:44:37.085Z,1424.72115
2023-02-28T11:49:38.675Z,1444.39485
2023-02-28T11:54:40.240Z,1444.75065
2023-02-28T11:59:41.810Z,1486.2312
2023-02-28T12:04:43.300Z,1447.06205
2023-02-28T12:09:44.741Z,1454.6472
2023-02-28T12:14:46.250Z,1501.40185
2023-02-28T12:19:47.721Z,1459.86265
2023-02-28T12:24:49.290Z,1454.0552
2023-02-28T12:29:50.861Z,1437.28565
2023-02-28T12:34:52.450Z,1456.2482
2023-02-28T12:39:54.026Z,1506.67635
2023-02-28T12:44:55.528Z,1509.4021
2023-02-28T12:49:57.284Z,1449.3152
2023-02-28T12:54:58.788Z,1434.0866
2023-02-28T13:00:00.283Z,1384.0732
2023-02-28T13:05:01.944Z,820.05795
2023-02-28T13:10:03.563Z,795.6818
2023-02-28T13:15:05.052Z,680.1897
2023-02-28T13:20:06.657Z,1365.58565
2023-02-28T13:25:08.173Z,1283.33695
2023-02-28T13:30:09.946Z,731.33565
2023-02-28T13:35:11.722Z,1304.34125
2023-02-28T13:40:13.240Z,1495.8333
2023-02-28T13:45:14.722Z,1660.96245
2023-02-28T13:50:17.736Z,1664.0564
2023-02-28T13:55:19.354Z,1603.7848
2023-02-28T14:00:20.947Z,1742.46715
2023-02-28T14:05:22.436Z,1789.54595
2023-02-28T14:10:24.217Z,1822.75855
2023-02-28T14:15:25.881Z,1828.8417
2023-02-28T14:20:27.381Z,1793.15525
2023-02-28T14:25:28.860Z,1871.66285
2023-02-28T14:30:30.529Z,1814.85965
2023-02-28T14:35:32.371Z,1871.32825
2023-02-28T14:40:33.862Z,1772.552
2023-02-28T14:45:35.320Z,1780.9607
2023-02-28T14:50:36.773Z,1645.8325
2023-02-28T14:55:38.506Z,1589.7291
2023-02-28T15:00:40.164Z,1628.6045
2023-02-28T15:05:41.867Z,1577.86915
2023-02-28T15:10:43.510Z,1546.6285
2023-02-28T15:15:58.704Z,1467.9346
2023-02-28T15:21:03.136Z,1303.1345
2023-02-28T15:26:04.641Z,1179.1646
2023-02-28T15:31:06.408Z,1094.88205
2023-02-28T15:36:08.323Z,923.9951
2023-02-28T15:41:09.920Z,804.11925
2023-02-28T15:46:11.386Z,672.31115
2023-02-28T15:51:13.413Z,502.17915
2023-02-28T15:56:14.910Z,327.6945
2023-02-28T16:01:16.397Z,261.9084
2023-02-28T16:06:17.894Z,184.46765
2023-02-28T16:11:19.395Z,145.4231
2023-02-28T16:16:21.206Z,107.87315
2023-02-28T16:21:22.894Z,79.0095
2023-02-28T16:26:24.380Z,66.67035
2023-02-28T16:31:26.332Z,47.56355
2023-02-28T16:36:27.841Z,31.27865
2023-02-28T16:41:29.621Z,17.2623
2023-02-28T16:46:31.551Z,6.67635
2023-02-28T16:51:35.631Z,4.59225
2023-02-28T16:56:37.494Z,0.88885
2023-02-28T17:01:39.299Z,1.16185
2023-02-28T17:06:40.851Z,0.88715
2023-02-28T17:11:42.352Z,0.88715
2023-02-28T17:16:43.957Z,0.88715
2023-02-28T17:21:45.495Z,0.88715
2023-02-28T17:26:47.065Z,0.88715
2023-02-28T17:31:48.739Z,0.88715
2023-02-28T17:36:50.254Z,0.88715
2023-02-28T17:41:51.755Z,0
2023-02-28T17:46:53.457Z,0
2023-02-28T17:51:55.121Z,0
2023-02-28T17:56:56.582Z,0
2023-02-28T18:01:58.260Z,0
2023-02-28T18:06:59.786Z,0
2023-02-28T18:12:01.232Z,0
2023-02-28T18:17:02.857Z,0
2023-02-28T18:22:04.326Z,0
2023-02-28T18:27:05.801Z,0
2023-02-28T18:32:07.369Z,0
2023-02-28T18:37:08.859Z,0
2023-02-28T18:42:10.496Z,0
2023-02-28T18:47:12.062Z,0
2023-02-28T18:52:13.598Z,0.88715
2023-02-28T18:57:15.075Z,0
2023-02-28T19:02:16.682Z,0
2023-02-28T19:07:18.124Z,0
2023-02-28T19:12:19.554Z,0
2023-02-28T19:17:21.059Z,0
2023-02-28T19:22:22.665Z,0
2023-02-28T19:27:24.102Z,0
2023-02-28T19:32:25.787Z,0
2023-02-28T19:37:27.403Z,0
2023-02-28T19:42:29.102Z,0.88715
2023-02-28T19:47:30.692Z,0
2023-02-28T19:52:32.190Z,0
2023-02-28T19:57:33.806Z,0
2023-02-28T20:02:35.336Z,0
2023-02-28T20:07:36.908Z,0
2023-02-28T20:12:38.444Z,0
2023-02-28T20:17:40.131Z,0
2023-02-28T20:22:41.758Z,0.88715
2023-02-28T20:27:43.377Z,0
2023-02-28T20:32:44.980Z,0
2023-02-28T20:37:46.477Z,0
2023-02-28T20:42:48.077Z,0
2023-02-28T20:47:49.577Z,0
2023-02-28T20:52:51.062Z,0
2023-02-28T20:57:52.567Z,0
2023-02-28T21:02:54.106Z,0
2023-02-28T21:07:55.640Z,0
2023-02-28T21:12:57.105Z,0
2023-02-28T21:17:58.666Z,0
2023-02-28T21:23:00.252Z,0
2023-02-28T21:28:01.774Z,0
2023-02-28T21:33:03.294Z,0
2023-02-28T21:38:04.907Z,0.88715
2023-02-28T21:43:06.434Z,0
2023-02-28T21:48:07.943Z,0
2023-02-28T21:53:09.365Z,0
2023-02-28T21:58:10.856Z,0
2023-02-28T22:03:12.364Z,0
2023-02-28T22:08:14.015Z,0
2023-02-28T22:13:15.541Z,0
2023-02-28T22:18:17.061Z,0
2023-02-28T22:23:19.171Z,0
2023-02-28T22:28:20.829Z,0
2023-02-28T22:33:22.583Z,0
2023-02-28T22:38:24.079Z,0.88715
2023-02-28T22:43:25.663Z,0
2023-02-28T22:48:27.237Z,0.88715
2023-02-28T22:53:28.792Z,0
2023-02-28T22:58:30.305Z,0.88715
2023-02-28T23:03:31.931Z,0
2023-02-28T23:08:33.408Z,0
2023-02-28T23:13:34.905Z,0
2023-02-28T23:18:36.581Z,0
2023-02-28T23:23:38.164Z,0
2023-02-28T23:28:39.608Z,0
2023-02-28T23:33:41.218Z,0
2023-02-28T23:38:42.778Z,0
2023-02-28T23:43:44.272Z,0
2023-02-28T23:48:45.801Z,0
2023-02-28T23:53:47.327Z,0
2023-02-28T23:58:48.819Z,0
